Rain From: 25-06-2019 00:00 Until: 12:00 warning for: Rain Level: Yellow info button
 Banner
iom-flag.gif  iom-flag.gif


Ballaugh webcam more information Ballaugh webcam


Thunder radar more information blitzortung!


warning for Rain more information rain snow radar


Visit our other weather sites:

Template documentation
and downloads

And another site



Nearby METAR Reports

   
EGNS - Isle Of Man/Rona, United Kingdom
Distance from station: SSW 16 mi
Updated: 25-06-2019 02:50
NOT Current
Partly Cloudy  
Partly Cloudy  
   Wind: North 2.3 mph
Wind: North 2.3 mph
Temperature: 14°C
Dew Point: 13°C
Humidity: 94%
Barometer: 1019 hPa
Clouds: Partly Cloudy
Visibility: More than 6 mi
Cloud details: Partly Cloudy 2600 ft
EGNS 250150Z 35002KT 9999 SCT026 14/13 Q1019
EGAC - Belfast Harbour, United Kingdom
Distance from station: WNW 57 mi
Updated: 25-06-2019 04:20
Overcast  
Overcast  
   Wind: NNW 6.9 mph
Wind: NNW 6.9 mph
Temperature: 14°C
Dew Point: 13°C
Humidity: 94%
Barometer: 1020 hPa
Clouds: Overcast
Visibility: More than 6 mi
Cloud details: Overcast 2400 ft
EGAC 250320Z AUTO 34006KT 9999 OVC024/// 14/13 Q1020
EGAA - Belfast/Aldergro, United Kingdom
Distance from station: WNW 71 mi
Updated: 25-06-2019 04:20
Mostly Cloudy  
Mostly Cloudy  
   Wind: North 8.1 mph
Wind: North 8.1 mph
Temperature: 13°C
Dew Point: 12°C
Humidity: 94%
Barometer: 1020 hPa
Clouds: Mostly Cloudy
Visibility: More than 6 mi
Cloud details: Mostly Cloudy 2200 ft
EGAA 250320Z 36007KT 9999 BKN022 13/12 Q1020
EGNH - Blackpool Airpor, United Kingdom
Distance from station: ESE 73 mi
Updated: 24-06-2019 20:50
NOT Current
Clear  
Clear  
   Wind: WNW 6.9 mph
Wind: WNW 6.9 mph
Temperature: 18°C
Dew Point: 15°C
Humidity: 83%
Barometer: 1018 hPa
Visibility: More than 6 mi
Cloud details: Clear ft
EGNH 241950Z 29006KT CAVOK 18/15 Q1018
EGOV - Valley Raf, United Kingdom
Distance from station: S 73 mi
Updated: 25-06-2019 03:50
Mostly Cloudy  
Mostly Cloudy  
   Wind: NNW 3.5 mph
Wind: NNW 3.5 mph
Temperature: 14°C
Dew Point: 14°C
Humidity: 100%
Barometer: 1019 hPa
Clouds: Mostly Cloudy
Visibility: 3 mi
Cloud details: Mostly Cloudy 100 ft
EGOV 250250Z AUTO 34003KT 5000 BKN001/// 14/14 Q1019
EGPK - Prestwick(Civ/Na, United Kingdom
Distance from station: N 82 mi
Updated: 25-06-2019 03:50
Mostly Cloudy  
Mostly Cloudy  
   Wind: varies 3.5 mph
Wind: varies 3.5 mph
Temperature: 14°C
Dew Point: 13°C
Humidity: 94%
Barometer: 1020 hPa
Clouds: Mostly Cloudy
Visibility: More than 6 mi
Cloud details: Partly Cloudy 1000 ft,
Mostly Cloudy 2200 ft
EGPK 250250Z VRB03KT 9999 SCT010 BKN022 14/13 Q1020
EIDW - Dublin Airport, Ireland
Distance from station: SW 93 mi
Updated: 25-06-2019 04:30
Mostly Cloudy  
Mostly Cloudy  
   Wind: NNE 6.9 mph
Wind: NNE 6.9 mph
Temperature: 13°C
Dew Point: 13°C
Humidity: 100%
Barometer: 1020 hPa
Clouds: Mostly Cloudy
Visibility: More than 6 mi
Cloud details: Few Clouds 1400 ft,
Mostly Cloudy 2200 ft
EIDW 250330Z 03006KT 9999 FEW014 BKN022 13/13 Q1020 NOSIG
EGGP - Liverpool Airpor, United Kingdom
Distance from station: SE 98 mi
Updated: 25-06-2019 04:20
Overcast  
Overcast  
   Wind: NNW 6.9 mph
Wind: NNW 6.9 mph
Temperature: 16°C
Dew Point: 15°C
Humidity: 94%
Barometer: 1018 hPa
Clouds: Overcast
Visibility: More than 6 mi
Cloud details: Overcast 1000 ft
EGGP 250320Z 34006KT 9999 OVC010 16/15 Q1018
EGPF - Glasgow Airport, United Kingdom
Distance from station: N 107 mi
Updated: 25-06-2019 04:20
Mist, Overcast  
Mist, Overcast  
   Wind: NE 3.5 mph
Wind: NE 3.5 mph
Temperature: 14°C
Dew Point: 13°C
Humidity: 94%
Barometer: 1021 hPa
Clouds: Overcast
Visibility: 3 mi
Cloud details: Overcast 2300 ft
EGPF 250320Z AUTO 04003KT 5000 BR OVC023 14/13 Q1021
EGCC - Manchester Intl, United Kingdom
Distance from station: SE 114 mi
Updated: 25-06-2019 04:20
Mist, Overcast  
Mist, Overcast  
   Wind: WNW 3.5 mph
Wind: WNW 3.5 mph
Temperature: 15°C
Dew Point: 15°C
Humidity: 100%
Barometer: 1018 hPa
Clouds: Overcast
Visibility: 3 mi
Cloud details: Overcast 900 ft
EGCC 250320Z AUTO 29003KT 4200 BR OVC009 15/15 Q1018
EGNM - Leeds And Bradfo, United Kingdom
Distance from station: ESE 122 mi
Updated: 25-06-2019 04:20
Mist, Mostly Cloudy  
Mist, Mostly Cloudy  
   Wind: NNE 5.8 mph
Wind: NNE 5.8 mph
Temperature: 14°C
Dew Point: 14°C
Humidity: 100%
Barometer: 1019 hPa
Clouds: Mostly Cloudy
Visibility: 1 mi
Cloud details: Few Clouds 100 ft,
Mostly Cloudy 200 ft
EGNM 250320Z 02005KT 1100 BR FEW001 BKN002 14/14 Q1019
 

Script developed by  Saratoga-weather.org Adapted for the template by  Weerstation Leuven

You find our weather info also at:

UK Metoffice

WeatherCloud

WeatherlinkIP

Equipment we use:

Weather-station
Davis VP2

Weather-program
Weather Display

Weather-server
My Computer

Provider
Fasthosts

Davis VP2

Weather Display

My Computer

Fasthosts

 Banner1
iom-flag.gif  iom-flag.gif
Flag Counter 

Hits since site created in 2003